HRQ weather

Reforma 115 Helipad
Miguel Hidalgo, Ciudad de México, Mexico

Public forecast

Using degrees Celsius for public forecast. Weather courtesy of forecast.io.

Closest aviation weather report (METAR) to Reforma 115 Helipad

Closest report is Licenciado Benito Juarez International Airport, 7.5 nm (13.9 km) E. Retrieved 2019/12/10 03:45 UTC (1 hour ago):

MMMX 100345Z 08008KT 8SM SKC 16/05 A3030 NOSIG RMK HZY CI

Closest aviation forecast (TAF) to Reforma 115 Helipad

Closest forecast is Licenciado Benito Juarez International Airport, 7.5 nm (13.9 km) E. Retrieved 2019-12-10 00:49 UTC (4 hours ago):

TAF MMMX 092242Z 1000/1106 12010KT P6SM SKC TX24/1022Z TN08/1013Z BECMG 1002/1003 12006KT SCT020 FM100600 00000KT 6SM HZ SCT020 TEMPO 1010/1014 5SM HZ BKN020 FM101600 09005KT 5SM HZ SCT220 FM102000 12012KT 6SM HZ SCT020 BKN220 FM110200 16006KT P6SM SCT080 BKN220